createdAt,value
2018-03-24T00:02:22.221Z,20.53
2018-03-24T00:04:49.701Z,21.60
2018-03-24T00:07:17.173Z,21.50
2018-03-24T00:09:44.767Z,20.10
2018-03-24T00:12:12.227Z,18.63
2018-03-24T00:14:39.665Z,20.67
2018-03-24T00:17:07.129Z,20.30
2018-03-24T00:19:34.586Z,21.37
2018-03-24T00:22:02.338Z,21.07
2018-03-24T00:24:29.781Z,21.60
2018-03-24T00:26:57.229Z,20.17
2018-03-24T00:29:24.697Z,20.23
2018-03-24T00:31:52.164Z,20.63
2018-03-24T00:34:19.889Z,18.73
2018-03-24T00:36:47.329Z,20.83
2018-03-24T00:39:14.773Z,20.77
2018-03-24T00:41:42.253Z,21.20
2018-03-24T00:44:09.701Z,20.17
2018-03-24T00:46:37.313Z,20.90
2018-03-24T00:49:04.757Z,18.97
2018-03-24T00:51:32.214Z,21.37
2018-03-24T00:53:59.685Z,21.33
2018-03-24T00:56:27.136Z,18.07
2018-03-24T00:58:54.909Z,18.43
2018-03-24T01:01:22.362Z,18.17
2018-03-24T01:03:49.805Z,18.50
2018-03-24T01:06:17.282Z,18.20
2018-03-24T01:08:44.733Z,16.33
2018-03-24T01:11:12.414Z,15.37
2018-03-24T01:13:39.857Z,14.37
2018-03-24T01:16:07.301Z,13.37
2018-03-24T01:18:34.765Z,13.57
2018-03-24T01:21:02.221Z,15.90
2018-03-24T01:23:29.873Z,14.00
2018-03-24T01:25:57.329Z,14.80
2018-03-24T01:28:24.886Z,13.80
2018-03-24T01:30:52.345Z,12.53
2018-03-24T01:33:19.797Z,13.17
2018-03-24T01:35:47.574Z,12.83
2018-03-24T01:38:15.041Z,14.20
2018-03-24T01:40:42.510Z,13.70
2018-03-24T01:43:09.973Z,14.17
2018-03-24T01:45:37.417Z,13.43
2018-03-24T01:48:04.901Z,12.13
2018-03-24T01:50:32.341Z,12.27
2018-03-24T01:52:59.789Z,12.33
2018-03-24T01:55:27.269Z,14.17
2018-03-24T01:57:54.709Z,15.60
2018-03-24T02:00:22.325Z,12.20
2018-03-24T02:02:49.769Z,12.80
2018-03-24T02:05:17.223Z,13.37
2018-03-24T02:07:44.704Z,12.33
2018-03-24T02:10:12.173Z,13.40
2018-03-24T02:12:39.673Z,14.00
2018-03-24T02:15:07.126Z,13.70
2018-03-24T02:17:34.589Z,13.10
2018-03-24T02:20:02.063Z,12.40
2018-03-24T02:22:29.535Z,13.40
2018-03-24T02:24:57.021Z,14.57
2018-03-24T02:27:24.473Z,12.27
2018-03-24T02:29:51.926Z,13.23
2018-03-24T02:32:19.578Z,13.50
2018-03-24T02:34:47.042Z,16.50
2018-03-24T02:37:14.674Z,15.13
2018-03-24T02:39:42.169Z,18.37
2018-03-24T02:42:09.784Z,16.50
2018-03-24T02:44:37.266Z,23.83
2018-03-24T02:47:04.708Z,27.17
2018-03-24T02:49:32.181Z,24.73
2018-03-24T02:51:59.626Z,22.27
2018-03-24T02:54:27.069Z,26.77
2018-03-24T02:56:54.545Z,22.23
2018-03-24T02:59:21.985Z,24.27
2018-03-24T03:01:49.781Z,24.37
2018-03-24T03:04:17.257Z,26.27
2018-03-24T03:06:44.706Z,25.37
2018-03-24T03:09:12.190Z,25.20
2018-03-24T03:11:39.637Z,27.10
2018-03-24T03:14:07.330Z,25.80
2018-03-24T03:16:34.770Z,22.47
2018-03-24T03:19:02.225Z,24.33
2018-03-24T03:24:31.717Z,21.67
2018-03-24T03:26:59.390Z,23.40
2018-03-24T03:29:26.829Z,20.90
2018-03-24T03:31:55.249Z,22.60
2018-03-24T03:34:22.721Z,22.87
2018-03-24T03:36:50.190Z,21.40
2018-03-24T03:39:17.766Z,22.23
2018-03-24T03:41:45.210Z,18.73
2018-03-24T03:44:12.657Z,21.00
2018-03-24T03:46:40.129Z,20.27
2018-03-24T03:49:07.596Z,20.00
2018-03-24T03:51:35.217Z,19.90
2018-03-24T03:54:02.669Z,18.30
2018-03-24T03:56:30.134Z,20.00
2018-03-24T03:58:57.593Z,19.60
2018-03-24T04:01:25.048Z,19.30
2018-03-24T04:03:52.581Z,18.33
2018-03-24T04:06:20.041Z,17.90
2018-03-24T04:08:47.494Z,19.57
2018-03-24T04:11:14.964Z,18.47
2018-03-24T04:13:42.409Z,20.73
2018-03-24T04:16:10.114Z,34.20
2018-03-24T04:18:37.594Z,35.57
2018-03-24T04:21:05.049Z,35.27
2018-03-24T04:23:32.557Z,28.00
2018-03-24T04:26:00.006Z,29.50
2018-03-24T04:28:27.478Z,26.77
2018-03-24T04:30:54.935Z,29.70
2018-03-24T04:33:22.397Z,27.00
2018-03-24T04:35:49.868Z,26.03
2018-03-24T04:38:17.310Z,26.10
2018-03-24T04:40:44.805Z,25.20
2018-03-24T04:43:12.265Z,23.27
2018-03-24T04:45:39.715Z,22.00
2018-03-24T04:48:07.177Z,24.00
2018-03-24T04:50:34.650Z,23.50
2018-03-24T04:53:02.362Z,24.90
2018-03-24T04:55:29.801Z,24.27
2018-03-24T04:57:57.244Z,23.43
2018-03-24T05:00:24.705Z,23.00
2018-03-24T05:02:52.191Z,24.60
2018-03-24T05:05:19.722Z,23.57
2018-03-24T05:07:47.165Z,26.17
2018-03-24T05:10:14.609Z,25.50
2018-03-24T05:12:42.117Z,26.97
2018-03-24T05:15:09.557Z,26.97
2018-03-24T05:17:37.049Z,27.20
2018-03-24T05:20:04.513Z,29.70
2018-03-24T05:22:31.954Z,29.40
2018-03-24T05:24:59.427Z,27.20
2018-03-24T05:27:26.869Z,27.70
2018-03-24T05:29:54.581Z,27.20
2018-03-24T05:32:22.035Z,26.90
2018-03-24T05:34:49.508Z,28.10
2018-03-24T05:37:16.989Z,27.30
2018-03-24T05:39:44.442Z,26.10
2018-03-24T05:42:12.071Z,27.10
2018-03-24T05:44:39.530Z,27.13
2018-03-24T05:47:06.977Z,27.20
2018-03-24T05:49:34.442Z,26.67
2018-03-24T05:52:01.896Z,28.50
2018-03-24T05:54:29.615Z,27.47
2018-03-24T05:56:57.064Z,28.60
2018-03-24T05:59:24.505Z,29.67
2018-03-24T06:01:51.982Z,27.00
2018-03-24T06:04:19.426Z,28.07
2018-03-24T06:06:46.909Z,26.77
2018-03-24T06:09:14.357Z,30.50
2018-03-24T06:11:41.805Z,28.97
2018-03-24T06:14:09.273Z,27.90
2018-03-24T06:16:36.721Z,28.53
2018-03-24T06:19:04.194Z,27.63
2018-03-24T06:21:31.646Z,27.30
2018-03-24T06:23:59.086Z,28.03
2018-03-24T06:26:26.549Z,28.03
2018-03-24T06:28:53.993Z,28.60
2018-03-24T06:31:33.313Z,26.93
2018-03-24T06:34:00.765Z,27.07
2018-03-24T06:36:29.123Z,28.13
2018-03-24T06:38:56.593Z,34.57
2018-03-24T06:41:24.047Z,30.77
2018-03-24T06:43:51.566Z,30.73
2018-03-24T06:46:19.015Z,28.93
2018-03-24T06:48:46.461Z,28.73
2018-03-24T06:51:13.923Z,26.20
2018-03-24T06:53:41.369Z,29.43
2018-03-24T06:56:08.996Z,30.77
2018-03-24T06:58:36.457Z,27.03
2018-03-24T07:01:03.901Z,28.50
2018-03-24T07:03:31.369Z,27.93
2018-03-24T07:05:58.817Z,27.87
2018-03-24T07:08:26.672Z,27.17
2018-03-24T07:10:54.114Z,29.13
2018-03-24T07:13:21.566Z,29.07
2018-03-24T07:15:49.087Z,28.30
2018-03-24T07:18:16.499Z,29.70
2018-03-24T07:20:44.345Z,29.10
2018-03-24T07:23:11.805Z,28.30
2018-03-24T07:25:39.248Z,29.20
2018-03-24T07:28:06.713Z,27.10
2018-03-24T07:30:34.157Z,27.60
2018-03-24T07:33:01.644Z,29.13
2018-03-24T07:35:29.089Z,29.50
2018-03-24T07:37:56.537Z,27.40
2018-03-24T07:40:24.003Z,28.00
2018-03-24T07:42:51.445Z,27.07
2018-03-24T07:45:18.940Z,29.30
2018-03-24T07:47:46.396Z,24.80
2018-03-24T07:50:13.845Z,25.17
2018-03-24T07:52:41.362Z,24.47
2018-03-24T07:55:08.814Z,26.03
2018-03-24T07:57:36.489Z,27.23
2018-03-24T08:00:03.942Z,26.40
2018-03-24T08:02:31.393Z,25.53
2018-03-24T08:04:58.886Z,25.10
2018-03-24T08:07:26.333Z,27.17
2018-03-24T08:09:54.062Z,23.77
2018-03-24T08:12:21.501Z,25.53
2018-03-24T08:14:48.951Z,26.00
2018-03-24T08:17:16.421Z,25.47
2018-03-24T08:19:43.893Z,24.60
2018-03-24T08:22:11.489Z,23.50
2018-03-24T08:24:38.932Z,24.00
2018-03-24T08:27:06.387Z,24.53
2018-03-24T08:29:33.901Z,23.53
2018-03-24T08:32:01.341Z,21.40
2018-03-24T08:34:28.853Z,23.23
2018-03-24T08:36:56.305Z,20.77
2018-03-24T08:39:23.777Z,21.90
2018-03-24T08:41:51.237Z,22.80
2018-03-24T08:44:18.709Z,22.30
2018-03-24T08:46:46.181Z,20.20
2018-03-24T08:49:13.637Z,18.93
2018-03-24T08:51:41.106Z,18.43
2018-03-24T08:54:08.581Z,18.30
2018-03-24T08:56:36.026Z,20.00
2018-03-24T08:59:03.693Z,20.87
2018-03-24T09:01:31.157Z,21.47
2018-03-24T09:03:58.601Z,20.43
2018-03-24T09:06:26.061Z,16.93
2018-03-24T09:08:53.509Z,19.07
2018-03-24T09:11:20.982Z,19.77
2018-03-24T09:13:48.421Z,19.70
2018-03-24T09:16:15.893Z,20.30
2018-03-24T09:18:43.365Z,18.47
2018-03-24T09:21:10.818Z,19.50
2018-03-24T09:23:38.597Z,20.03
2018-03-24T09:26:06.087Z,14.60
2018-03-24T09:28:33.542Z,15.97
2018-03-24T09:31:01.041Z,19.00
2018-03-24T09:33:28.486Z,17.30
2018-03-24T09:35:56.092Z,19.13
2018-03-24T09:38:23.554Z,17.30
2018-03-24T09:40:51.003Z,16.10
2018-03-24T09:43:18.470Z,17.03
2018-03-24T09:45:45.921Z,18.57
2018-03-24T09:48:13.441Z,15.70
2018-03-24T09:50:40.925Z,17.93
2018-03-24T09:53:08.373Z,16.63
2018-03-24T09:55:35.850Z,16.30
2018-03-24T09:58:03.300Z,16.17
2018-03-24T10:00:30.826Z,17.60
2018-03-24T10:02:59.141Z,14.90
2018-03-24T10:05:26.593Z,12.97
2018-03-24T10:07:54.057Z,17.83
2018-03-24T10:10:21.512Z,12.70
2018-03-24T10:12:49.149Z,12.10
2018-03-24T10:15:16.873Z,11.97
2018-03-24T10:17:44.324Z,11.60
2018-03-24T10:20:11.794Z,14.43
2018-03-24T10:22:51.062Z,11.07
2018-03-24T10:25:18.529Z,9.90
2018-03-24T10:27:45.977Z,11.27
2018-03-24T10:30:13.561Z,10.50
2018-03-24T10:32:41.032Z,9.60
2018-03-24T10:35:08.483Z,12.10
2018-03-24T10:37:41.542Z,11.50
2018-03-24T10:40:08.993Z,10.20
2018-03-24T10:42:36.574Z,13.50
2018-03-24T10:45:04.045Z,11.87
2018-03-24T10:47:31.501Z,12.43
2018-03-24T10:49:58.989Z,10.40
2018-03-24T10:52:26.469Z,11.17
2018-03-24T10:54:54.060Z,11.70
2018-03-24T10:57:21.518Z,13.47
2018-03-24T10:59:48.977Z,11.43
2018-03-24T11:02:16.446Z,13.80
2018-03-24T11:04:43.909Z,12.27
2018-03-24T11:07:11.398Z,12.83
2018-03-24T11:09:38.845Z,12.13
2018-03-24T11:12:06.294Z,12.10
2018-03-24T11:14:33.769Z,13.20
2018-03-24T11:17:01.239Z,10.87
2018-03-24T11:19:28.725Z,11.47
2018-03-24T11:21:56.185Z,11.20
2018-03-24T11:24:23.665Z,10.30
2018-03-24T11:26:51.174Z,9.20
2018-03-24T11:29:18.617Z,12.03
2018-03-24T11:31:46.117Z,11.93
2018-03-24T11:34:13.573Z,10.73
2018-03-24T11:36:41.041Z,11.03
2018-03-24T11:39:08.519Z,9.63
2018-03-24T11:41:35.967Z,13.13
2018-03-24T11:44:03.449Z,9.53
2018-03-24T11:46:30.885Z,8.00
2018-03-24T11:48:58.341Z,6.27
2018-03-24T11:51:25.805Z,9.93
2018-03-24T11:53:53.258Z,10.23
2018-03-24T11:56:20.877Z,8.70
2018-03-24T11:58:48.321Z,9.23
2018-03-24T12:01:15.762Z,9.90
2018-03-24T12:03:43.231Z,9.57
2018-03-24T12:06:10.705Z,9.80
2018-03-24T12:08:38.315Z,9.50
2018-03-24T12:11:05.766Z,11.23
2018-03-24T12:13:33.213Z,11.20
2018-03-24T12:16:00.688Z,11.57
2018-03-24T12:18:28.137Z,10.97
2018-03-24T12:20:55.635Z,10.10
2018-03-24T12:23:23.081Z,9.00
2018-03-24T12:25:50.521Z,9.37
2018-03-24T12:28:17.984Z,9.20
2018-03-24T12:30:45.436Z,7.73
2018-03-24T12:33:12.917Z,8.50
2018-03-24T12:35:40.373Z,8.80
2018-03-24T12:38:07.846Z,9.40
2018-03-24T12:40:35.311Z,9.27
2018-03-24T12:43:02.760Z,9.97
2018-03-24T12:45:30.390Z,9.80
2018-03-24T12:47:57.845Z,11.80
2018-03-24T12:50:25.297Z,9.77
2018-03-24T12:52:52.922Z,8.83
2018-03-24T12:55:20.369Z,9.97
2018-03-24T12:57:47.864Z,9.20
2018-03-24T13:00:15.310Z,9.30
2018-03-24T13:02:42.754Z,7.63
2018-03-24T13:05:10.217Z,9.63
2018-03-24T13:07:37.666Z,8.87
2018-03-24T13:10:05.498Z,8.00
2018-03-24T13:12:32.941Z,9.60
2018-03-24T13:15:00.381Z,8.97
2018-03-24T13:17:27.853Z,10.37
2018-03-24T13:19:55.301Z,10.40
2018-03-24T13:22:23.049Z,11.70
2018-03-24T13:24:50.485Z,8.43
2018-03-24T13:27:17.937Z,7.50
2018-03-24T13:29:45.426Z,10.70
2018-03-24T13:32:12.897Z,8.70
2018-03-24T13:34:40.393Z,11.60
2018-03-24T13:37:07.877Z,11.57
2018-03-24T13:39:35.338Z,9.50
2018-03-24T13:42:02.813Z,10.63
2018-03-24T13:44:30.282Z,10.87
2018-03-24T13:46:57.755Z,10.77
2018-03-24T13:49:25.209Z,9.83
2018-03-24T13:51:52.654Z,9.43
2018-03-24T13:54:20.137Z,9.50
2018-03-24T13:56:47.585Z,9.00
2018-03-24T13:59:15.283Z,8.70
2018-03-24T14:01:42.757Z,10.17
2018-03-24T14:04:10.202Z,9.50
2018-03-24T14:06:37.676Z,9.47
2018-03-24T14:09:05.170Z,9.77
2018-03-24T14:11:32.857Z,9.97
2018-03-24T14:14:00.313Z,10.30
2018-03-24T14:16:27.778Z,9.20
2018-03-24T14:18:55.265Z,10.23
2018-03-24T14:21:22.709Z,8.90
2018-03-24T14:23:50.416Z,8.27
2018-03-24T14:26:17.976Z,8.50
2018-03-24T14:28:45.413Z,8.70
2018-03-24T14:31:12.889Z,8.93
2018-03-24T14:33:40.344Z,7.50
2018-03-24T14:36:07.823Z,7.77
2018-03-24T14:38:35.266Z,7.50
2018-03-24T14:41:02.711Z,6.67
2018-03-24T14:43:30.206Z,8.10
2018-03-24T14:45:57.658Z,7.60
2018-03-24T14:48:25.401Z,7.13
2018-03-24T14:50:52.852Z,8.10
2018-03-24T14:53:20.301Z,8.13
2018-03-24T14:55:47.778Z,8.00
2018-03-24T14:58:15.226Z,7.90
2018-03-24T15:00:42.866Z,8.20
2018-03-24T15:03:10.313Z,7.63
2018-03-24T15:05:37.777Z,6.30
2018-03-24T15:08:05.283Z,7.10
2018-03-24T15:10:32.727Z,7.77
2018-03-24T15:13:00.408Z,7.57
2018-03-24T15:15:27.849Z,6.90
2018-03-24T15:17:55.286Z,7.77
2018-03-24T15:20:22.785Z,7.03
2018-03-24T15:22:50.222Z,8.47
2018-03-24T15:25:17.868Z,7.60
2018-03-24T15:27:45.368Z,6.90
2018-03-24T15:30:24.958Z,8.23
2018-03-24T15:32:52.641Z,5.97
2018-03-24T15:35:46.654Z,6.40
2018-03-24T15:38:14.140Z,7.00
2018-03-24T15:40:41.782Z,8.07
2018-03-24T15:43:09.228Z,7.13
2018-03-24T15:45:36.682Z,7.90
2018-03-24T15:48:04.167Z,7.90
2018-03-24T15:50:31.610Z,7.63
2018-03-24T15:52:59.230Z,7.97
2018-03-24T15:55:26.689Z,7.07
2018-03-24T15:57:54.145Z,9.97
2018-03-24T16:00:21.602Z,8.90
2018-03-24T16:02:49.245Z,7.40
2018-03-24T16:05:16.745Z,10.40
2018-03-24T16:07:44.189Z,7.47
2018-03-24T16:10:11.647Z,8.03
2018-03-24T16:12:39.113Z,7.00
2018-03-24T16:15:06.621Z,7.27
2018-03-24T16:17:34.550Z,8.40
2018-03-24T16:20:01.994Z,8.23
2018-03-24T16:22:29.445Z,7.30
2018-03-24T16:24:56.950Z,7.20
2018-03-24T16:27:24.394Z,7.27
2018-03-24T16:29:51.887Z,7.43
2018-03-24T16:32:19.339Z,8.33
2018-03-24T16:34:46.801Z,7.43
2018-03-24T16:37:14.262Z,7.60
2018-03-24T16:39:41.709Z,8.63
2018-03-24T16:42:09.279Z,8.27
2018-03-24T16:44:36.748Z,8.60
2018-03-24T16:47:04.195Z,9.83
2018-03-24T16:49:31.669Z,12.60
2018-03-24T16:51:59.120Z,13.60
2018-03-24T16:54:26.601Z,11.03
2018-03-24T16:56:54.058Z,9.40
2018-03-24T16:59:21.502Z,8.60
2018-03-24T17:01:48.979Z,9.27
2018-03-24T17:04:16.466Z,11.33
2018-03-24T17:06:44.171Z,12.03
2018-03-24T17:09:11.641Z,10.57
2018-03-24T17:11:39.106Z,9.27
2018-03-24T17:14:06.643Z,9.67
2018-03-24T17:16:34.101Z,10.20
2018-03-24T17:19:01.538Z,8.33
2018-03-24T17:21:28.996Z,8.27
2018-03-24T17:23:56.446Z,9.17
2018-03-24T17:26:23.883Z,9.13
2018-03-24T17:28:51.354Z,8.37
2018-03-24T17:31:18.798Z,9.30
2018-03-24T17:33:46.261Z,9.63
2018-03-24T17:36:14.009Z,9.50
2018-03-24T17:38:41.498Z,9.87
2018-03-24T17:41:08.977Z,8.77
2018-03-24T17:43:36.789Z,9.30
2018-03-24T17:46:04.225Z,9.30
2018-03-24T17:48:31.720Z,8.17
2018-03-24T17:50:59.397Z,8.53
2018-03-24T17:53:26.850Z,9.80
2018-03-24T17:55:54.301Z,9.37
2018-03-24T17:58:21.907Z,9.70
2018-03-24T18:00:49.348Z,9.87
2018-03-24T18:03:16.814Z,10.03
2018-03-24T18:05:44.286Z,12.37
2018-03-24T18:08:11.761Z,9.90
2018-03-24T18:10:39.213Z,9.57
2018-03-24T18:13:06.681Z,10.47
2018-03-24T18:15:34.150Z,9.80
2018-03-24T18:18:01.605Z,8.70
2018-03-24T18:20:29.111Z,9.80
2018-03-24T18:22:56.570Z,9.90
2018-03-24T18:25:24.085Z,9.90
2018-03-24T18:27:51.530Z,9.50
2018-03-24T18:30:18.993Z,8.90
2018-03-24T18:32:46.458Z,9.87
2018-03-24T18:35:13.946Z,9.70
2018-03-24T18:37:41.561Z,11.23
2018-03-24T18:40:09.009Z,10.20
2018-03-24T18:42:36.441Z,8.20
2018-03-24T18:45:03.919Z,10.33
2018-03-24T18:47:31.383Z,9.67
2018-03-24T18:49:58.989Z,10.63
2018-03-24T18:52:26.442Z,10.13
2018-03-24T18:54:53.886Z,10.53
2018-03-24T18:57:21.479Z,9.90
2018-03-24T18:59:48.941Z,10.50
2018-03-24T19:02:16.550Z,9.80
2018-03-24T19:04:44.262Z,10.70
2018-03-24T19:07:11.750Z,9.93
2018-03-24T19:09:39.231Z,10.70
2018-03-24T19:12:06.670Z,10.77
2018-03-24T19:14:34.381Z,10.77
2018-03-24T19:17:01.822Z,10.27
2018-03-24T19:19:29.277Z,11.00
2018-03-24T19:21:56.747Z,10.40
2018-03-24T19:24:24.197Z,10.10
2018-03-24T19:26:51.834Z,11.87
2018-03-24T19:29:19.285Z,11.40
2018-03-24T19:31:46.730Z,11.40
2018-03-24T19:34:14.207Z,11.37
2018-03-24T19:36:41.658Z,10.97
2018-03-24T19:39:09.504Z,11.23
2018-03-24T19:41:36.971Z,11.53
2018-03-24T19:44:04.414Z,12.30
2018-03-24T19:46:31.899Z,10.97
2018-03-24T19:48:59.361Z,12.00
2018-03-24T19:51:26.833Z,12.30
2018-03-24T19:53:54.290Z,12.00
2018-03-24T19:56:21.786Z,12.13
2018-03-24T19:58:49.269Z,13.67
2018-03-24T20:01:16.741Z,14.50
2018-03-24T20:03:44.401Z,14.20
2018-03-24T20:06:11.861Z,13.13
2018-03-24T20:08:39.302Z,13.17
2018-03-24T20:11:06.779Z,11.63
2018-03-24T20:13:34.226Z,12.60
2018-03-24T20:16:01.925Z,11.50
2018-03-24T20:18:29.378Z,11.93
2018-03-24T20:20:56.844Z,11.67
2018-03-24T20:23:24.412Z,11.20
2018-03-24T20:25:51.888Z,11.10
2018-03-24T20:28:19.373Z,12.37
2018-03-24T20:30:46.833Z,10.93
2018-03-24T20:33:14.293Z,13.03
2018-03-24T20:35:41.787Z,11.67
2018-03-24T20:38:09.239Z,13.10
2018-03-24T20:40:36.845Z,11.90
2018-03-24T20:43:04.325Z,11.43
2018-03-24T20:45:31.783Z,13.10
2018-03-24T20:47:59.257Z,13.10
2018-03-24T20:50:26.709Z,11.97
2018-03-24T20:52:54.401Z,11.63
2018-03-24T20:55:21.849Z,10.00
2018-03-24T20:57:49.333Z,12.37
2018-03-24T21:00:16.812Z,11.80
2018-03-24T21:02:44.276Z,12.30
2018-03-24T21:05:11.762Z,12.90
2018-03-24T21:07:39.215Z,12.90
2018-03-24T21:10:06.657Z,12.50
2018-03-24T21:12:34.252Z,11.23
2018-03-24T21:15:01.694Z,12.17
2018-03-24T21:17:29.194Z,11.33
2018-03-24T21:19:56.646Z,11.27
2018-03-24T21:22:24.108Z,11.63
2018-03-24T21:24:51.602Z,10.93
2018-03-24T21:27:19.050Z,11.37
2018-03-24T21:29:46.529Z,10.73
2018-03-24T21:32:13.978Z,11.20
2018-03-24T21:34:41.462Z,12.97
2018-03-24T21:37:08.936Z,13.30
2018-03-24T21:39:36.415Z,12.43
2018-03-24T21:42:03.966Z,12.73
2018-03-24T21:44:31.445Z,11.20
2018-03-24T21:46:58.893Z,12.33
2018-03-24T21:49:26.378Z,11.33
2018-03-24T21:51:53.821Z,12.00
2018-03-24T21:54:21.317Z,12.50
2018-03-24T21:56:48.766Z,13.07
2018-03-24T21:59:16.234Z,11.60
2018-03-24T22:01:43.717Z,12.07
2018-03-24T22:04:11.166Z,11.93
2018-03-24T22:06:38.690Z,11.50
2018-03-24T22:09:06.134Z,13.10
2018-03-24T22:11:33.582Z,12.53
2018-03-24T22:14:01.053Z,10.43
2018-03-24T22:16:28.499Z,11.50
2018-03-24T22:18:56.077Z,11.83
2018-03-24T22:21:23.521Z,11.00
2018-03-24T22:23:51.003Z,10.90
2018-03-24T22:26:18.491Z,11.50
2018-03-24T22:28:45.937Z,12.03
2018-03-24T22:31:13.418Z,11.40
2018-03-24T22:33:40.892Z,10.90
2018-03-24T22:36:08.338Z,11.70
2018-03-24T22:38:35.837Z,11.73
2018-03-24T22:41:03.292Z,11.57
2018-03-24T22:43:30.758Z,9.93
2018-03-24T22:45:58.209Z,11.27
2018-03-24T22:48:25.763Z,12.17
2018-03-24T22:50:53.229Z,10.37
2018-03-24T22:53:20.705Z,12.27
2018-03-24T22:55:48.189Z,11.63
2018-03-24T22:58:15.651Z,11.33
2018-03-24T23:00:43.109Z,11.57
2018-03-24T23:03:10.569Z,9.80
2018-03-24T23:05:38.010Z,10.13
2018-03-24T23:08:05.522Z,10.83
2018-03-24T23:10:32.971Z,10.80
2018-03-24T23:13:00.423Z,11.30
2018-03-24T23:15:27.891Z,11.23
2018-03-24T23:17:55.346Z,10.60
2018-03-24T23:20:22.825Z,10.27
2018-03-24T23:22:50.284Z,10.37
2018-03-24T23:25:17.756Z,11.30
2018-03-24T23:27:45.237Z,10.30
2018-03-24T23:30:12.709Z,10.60
2018-03-24T23:32:40.193Z,10.83
2018-03-24T23:35:07.641Z,11.00
2018-03-24T23:37:35.117Z,10.53
2018-03-24T23:40:02.683Z,10.83
2018-03-24T23:42:30.081Z,10.90
2018-03-24T23:44:57.573Z,10.20
2018-03-24T23:47:25.044Z,11.10
2018-03-24T23:49:52.489Z,11.60
2018-03-24T23:52:20.161Z,10.27
2018-03-24T23:54:47.609Z,11.90
2018-03-24T23:57:15.378Z,12.40
2018-03-24T23:59:42.818Z,10.60
